2022年9月25日

时间 代码 天气 温度 能见度 天花板 METAR/SPECI
8:00 上午
V
48 °F 15 mi - 290° 290° 9 kt METAR CYWG 251300Z 29009KT 15SM FEW020 09/07 A2994 RMK CU1 CU TR SLP146
7:00 上午
V
48 °F 15 mi - 300° 300° 10 kt METAR CYWG 251200Z 30010KT 15SM FEW020 09/07 A2991 RMK CU1 CU TR SLP137
6:00 上午
V
50 °F 15 mi - 300° 300° 11 kt METAR CYWG 251100Z 30011KT 15SM SKC 10/07 A2989 RMK SLP130
5:00 上午
V
46 °F 15 mi - 290° 290° 9 kt METAR CYWG 251000Z 29009KT 15SM SKC 08/07 A2987 RMK SLP123
4:00 上午
V
46 °F 15 mi - 290° 290° 8 kt METAR CYWG 250900Z 29008KT 15SM SCT082 08/07 A2986 RMK AC3 SLP119
3:00 上午
V
50 °F 15 mi 7.400 ft 290° 290° 11 kt METAR CYWG 250800Z 29011KT 15SM OVC074 10/08 A2985 RMK AC8 SLP116
2:00 上午
V
50 °F 15 mi 6.700 ft 290° 290° 9 kt METAR CYWG 250700Z 29009KT 15SM OVC067 10/08 A2984 RMK AC8 SLP111
1:00 上午
V
52 °F 15 mi 7.100 ft 270° 270° 10 kt METAR CYWG 250600Z 27010KT 15SM OVC071 11/10 A2983 RMK AC8 SLP109
12:00 上午
V
50 °F 15 mi 7.100 ft 260° 260° 7 kt METAR CYWG 250500Z 26007KT 15SM OVC071 10/09 A2983 RMK AC8 SLP110

2022年9月24日

时间 代码 天气 温度 能见度 天花板 METAR/SPECI
11:00 下午
V
52 °F 15 mi 7.100 ft 270° 270° 8 kt METAR CYWG 250400Z 27008KT 15SM OVC071 11/10 A2984 RMK AC8 SLP111
10:00 下午
V
52 °F 15 mi - 280° 280° 6 kt METAR CYWG 250300Z 28006KT 15SM SCT090 11/10 A2984 RMK AC3 SLP111
9:00 下午
V
48 °F 15 mi - 300° 300° 5 kt METAR CYWG 250200Z 30005KT 15SM SKC 09/09 A2982 RMK SLP107
8:00 下午
V
52 °F 15 mi - 290° 290° 7 kt METAR CYWG 250100Z 29007KT 15SM FEW080 11/09 A2981 RMK AC1 AC TR SLP103
7:00 下午
V
59 °F 15 mi - 310° 310° 5 kt METAR CYWG 250000Z 31005KT 15SM FEW030 FEW080 FEW220 FEW230 15/11 A2980 RMK SC1AC1CI1CC1 SC TR AC TR SLP098 DENSITY ALT 1200FT
6:00 下午
V
63 °F 15 mi - 310° 310° 9 kt METAR CYWG 242300Z 31009KT 15SM FEW018 FEW030 FEW090 FEW210 17/10 A2979 RMK SC1SC1AC1CI1 SC TR CI TR SLP095 DENSITY ALT 1400FT
5:00 下午
V
63 °F 15 mi 11.000 ft 320° 320° 11 kt METAR CYWG 242200Z 32011KT 15SM FEW026 FEW069 BKN110 17/10 A2979 RMK SC1AC2AC3 SC TR SLP095 DENSITY ALT 1400FT
4:00 下午
V
61 °F 15 mi 8.100 ft 310° 310° 11 kt METAR CYWG 242100Z 31011KT 15SM FEW026 BKN081 BKN140 16/11 A2978 RMK SC1AC6AC1 SC TR SLP091 DENSITY ALT 1300FT
3:00 下午
M
61 °F 15 mi 2.500 ft 320° 320° 13 kt METAR CYWG 242000Z 32013KT 15SM BKN025 BKN140 16/11 A2977 RMK SC5AC2 SLP086 DENSITY ALT 1300FT
2:00 下午
M
59 °F 15 mi 1.800 ft 300° 300° 7 kt METAR CYWG 241900Z 30007KT 15SM BKN018 BKN049 15/12 A2977 RMK SC6SC1 SLP086 DENSITY ALT 1200FT
1:00 下午
M
57 °F 15 mi 1.200 ft 290° 290° 9 kt METAR CYWG 241800Z 29009KT 15SM BKN012 BKN022 14/12 A2976 RMK SC7SC1 SC TR SLP086 DENSITY ALT 1000FT
12:33 下午
M
57 °F 15 mi 1.000 ft 280° 280° 7 kt METAR CYWG 241733Z 28007KT 15SM BKN010 OVC018 14/12 A2976 RMK SC7SC1 SLP084 DENSITY ALT 1000FT
12:00 下午
I
55 °F 10 mi 900 ft 270° 270° 8 kt METAR CYWG 241700Z 27008KT 240V310 10SM BKN009 OVC026 13/12 A2976 RMK SC7SC1 SLP084 DENSITY ALT 1000FT
11:00 上午
I
55 °F 10 mi 600 ft 280° 280° 6 kt METAR CYWG 241600Z 28006KT 10SM BKN006 OVC026 13/12 A2975 RMK SC7SC1 SLP081 DENSITY ALT 900FT
10:48 上午
I
55 °F 10 mi 600 ft 270° 270° 7 kt METAR CYWG 241548Z 27007KT 10SM OVC006 13/12 A2975 RMK SC8 SLP080 DENSITY ALT 900FT
10:00 上午
L
54 °F 5 mi 300 ft 260° 260° 5 kt METAR CYWG 241500Z 26005KT 5SM -RA BR OVC003 12/12 A2974 RMK SC8 SLP079 DENSITY ALT 800FT
9:24 上午
L
54 °F 5 mi 300 ft 260° 260° 6 kt METAR CYWG 241424Z CCA 26006KT 5SM -RA BR BKN003 BKN026 OVC084 12/12 A2973 RMK ST6SC1AC1 SLP075 DENSITY ALT 800FT
9:00 上午
L
54 °F 5 mi 300 ft 250° 250° 7 kt METAR CYWG 241400Z 25007KT 5SM BR BKN003 OVC038 12/12 A2973 RMK ST6SC1 SLP074 DENSITY ALT 800FT
8:24 上午
M
52 °F 4 mi 4.700 ft 260° 260° 7 kt METAR CYWG 241324Z 26007KT 4SM BR FEW006 OVC047 11/11 A2972 RMK SF1SC7 SLP072 DENSITY ALT 800FT
8:00 上午
M
52 °F 4 mi 3.800 ft 260° 260° 7 kt METAR CYWG 241300Z 26007KT 4SM -RA BR OVC038 11/11 A2972 RMK SC8 SLP071 DENSITY ALT 800FT
7:00 上午
M
52 °F 15 mi 2.700 ft 230° 230° 4 kt METAR CYWG 241200Z 23004KT 15SM FEW009 OVC027 11/11 A2972 RMK SF1SC7 SLP070 DENSITY ALT 800FT
6:00 上午
M
52 °F 15 mi 2.100 ft 190° 190° 3 kt METAR CYWG 241100Z 19003KT 15SM -RA FEW003 SCT014 OVC021 11/11 A2971 RMK SF1SC3SC5 SF TR SLP068 DENSITY ALT 800FT
5:00 上午
M
52 °F 10 mi 1.400 ft 170° 170° 4 kt METAR CYWG 241000Z 17004KT 10SM -RA OVC014 11/11 A2971 RMK SC8 SLP066 DENSITY ALT 800FT
4:00 上午
M
54 °F 15 mi 2.700 ft 190° 190° 6 kt METAR CYWG 240900Z 19006KT 15SM -RA BKN027 12/11 A2970 RMK SC7 SLP065 DENSITY ALT 800FT
3:00 上午
M
52 °F 15 mi 2.000 ft 180° 180° 6 kt METAR CYWG 240800Z 18006KT 15SM SCT005 BKN020 BKN100 11/11 A2970 RMK SF3SC2AC2 SLP065 DENSITY ALT 800FT
2:00 上午
I
52 °F 15 mi 500 ft 180° 180° 8 kt METAR CYWG 240700Z 18008KT 15SM BKN005 BKN100 11/11 A2970 RMK SC5AC2 SLP063 DENSITY ALT 800FT
1:31 上午
I
54 °F 15 mi 500 ft 190° 190° 7 kt METAR CYWG 240631Z 19007KT 15SM BKN005 BKN011 BKN100 12/11 A2969 RMK SC5SC1AC1 SLP062 DENSITY ALT 900FT
1:00 上午
V
52 °F 15 mi 10.000 ft 180° 180° 10 - 15 kt METAR CYWG 240600Z 18010G15KT 15SM FEW007 BKN100 11/11 A2970 RMK SF2AC3 SLP063 DENSITY ALT 800FT
12:00 上午
V
54 °F 15 mi - 170° 170° 11 kt METAR CYWG 240500Z 17011KT 15SM SCT057 12/11 A2970 RMK SC3 SLP064 DENSITY ALT 900FT

2022年9月23日

时间 代码 天气 温度 能见度 天花板 METAR/SPECI
11:00 下午
V
54 °F 15 mi - 170° 170° 10 kt METAR CYWG 240400Z 17010KT 15SM SCT057 12/10 A2970 RMK SC4 SLP065 DENSITY ALT 900FT
10:00 下午
V
55 °F 15 mi 5.700 ft 170° 170° 9 kt METAR CYWG 240300Z 17009KT 15SM BKN057 BKN086 13/11 A2970 RMK SC5AC2 SLP065 DENSITY ALT 1100FT
9:40 下午
V
57 °F 15 mi 5.900 ft 150° 150° 9 - 15 kt METAR CYWG 240240Z 15009G15KT 15SM OVC059 14/11 A2971 RMK SC8 SLP067 DENSITY ALT 1100FT
9:00 下午
V
55 °F 15 mi 6.600 ft 150° 150° 8 kt METAR CYWG 240200Z CCA 15008KT 15SM -RA OVC066 13/11 A2971 RMK AC8 SLP067 DENSITY ALT 1100FT
8:00 下午
V
57 °F 15 mi 4.200 ft 140° 140° 11 - 17 kt METAR CYWG 240100Z 14011G17KT 15SM BKN042 OVC057 14/10 A2971 RMK SC6SC2 SLP068 DENSITY ALT 1100FT
7:00 下午
V
57 °F 15 mi 5.000 ft 140° 140° 10 - 15 kt METAR CYWG 240000Z 14010G15KT 15SM FEW040 BKN050 14/10 A2971 RMK CF2SC5 SLP067 DENSITY ALT 1100FT
6:00 下午
V
57 °F 15 mi 4.500 ft 150° 150° 12 - 18 kt METAR CYWG 232300Z 15012G18KT 15SM BKN045 OVC055 OVC100 14/10 A2971 RMK SC5SC3AS1 AS TR SLP067 DENSITY ALT 1100FT
5:00 下午
V
57 °F 15 mi 3.500 ft 170° 170° 14 kt METAR CYWG 232200Z 17014KT 15SM FEW015 SCT025 BKN035 BKN045 BKN080 14/10 A2972 RMK CF1SC4SC1SC1AC1 CF TR SLP070 DENSITY ALT 1100FT
4:00 下午
V
57 °F 9 mi 3.000 ft 160° 160° 12 - 20 kt METAR CYWG 232100Z 16012G20KT 9SM FEW015 SCT020 BKN030 OVC037 14/10 A2973 RMK CF1CU2SC4SC1 SLP074 DENSITY ALT 1100FT
3:23 下午
M
55 °F 9 mi 2.000 ft 160° 160° 12 kt METAR CYWG 232023Z 16012KT 9SM FEW013 BKN020 OVC035 13/11 A2974 RMK CF1CU5SC2 /OCNL-SHRA SLP079 DENSITY ALT 1000FT
3:00 下午
V
55 °F 8 mi 3.000 ft 160° 160° 12 - 25 kt METAR CYWG 232000Z 16012G25KT 8SM -SHRA SCT020 OVC030 13/11 A2975 RMK CU3SC5 SLP082 DENSITY ALT 900FT
2:49 下午
M
55 °F 6 mi 2.500 ft 170° 170° 16 - 24 kt METAR CYWG 231949Z 17016G24KT 6SM -SHRA BR SCT017 OVC025 13/10 A2975 RMK CU4SC4 SLP082 DENSITY ALT 1000FT
2:00 下午
M
57 °F 15 mi 2.500 ft 160° 160° 15 - 21 kt METAR CYWG 231900Z 16015G21KT 15SM BKN025 OVC035 OVC050 14/09 A2975 RMK SC6SC2SC1 SC TR SLP083 DENSITY ALT 1100FT
1:00 下午
V
57 °F 15 mi 3.500 ft 160° 160° 16 kt METAR CYWG 231800Z 16016KT 15SM FEW025 BKN035 OVC045 14/09 A2976 RMK CU1SC7SC1 CU TR SLP084 DENSITY ALT 1100FT
12:00 下午
V
57 °F 15 mi 3.500 ft 160° 160° 13 kt METAR CYWG 231700Z 16013KT 15SM BKN035 OVC050 14/09 A2977 RMK SC5SC3 SLP089 DENSITY ALT 1000FT
11:17 上午
V
55 °F 15 mi 5.000 ft 160° 160° 14 kt METAR CYWG 231617Z 16014KT 15SM BKN050 OVC060 13/09 A2978 RMK SC5SC3 /OCNL-SHRA/ CVCTV CLD EMBD/ SLP091 DENSITY ALT 900FT
11:00 上午
V
54 °F 14 mi 5.000 ft 150° 150° 13 kt METAR CYWG 231600Z 15013KT 14SM -SHRA BKN050 OVC060 12/09 A2978 RMK SC6SC2 / CVCTV CLD EMBD / SLP094 DENSITY ALT 800FT
10:15 上午
V
52 °F 14 mi 5.000 ft 150° 150° 13 kt METAR CYWG 231515Z 15013KT 14SM -SHRA OVC050 11/08 A2980 RMK SC8 / CVCTV CLD EMBD / SLP100
10:00 上午
V
52 °F 15 mi 5.200 ft 150° 150° 14 kt METAR CYWG 231500Z 15014KT 15SM OVC052 11/08 A2981 RMK SC8 /DIST SH NE-E AND S / CVCTV CLDS EMBD SLP102
9:23 上午
V
52 °F 15 mi 6.200 ft 150° 150° 12 kt METAR CYWG 231423Z 15012KT 15SM OVC062 11/08 A2981 RMK SC8 /DIST SH NE-E AND SW / CVCTV CLDS EMBD SLP104
9:00 上午
V
52 °F 15 mi 6.500 ft 150° 150° 10 - 15 kt METAR CYWG 231400Z 15010G15KT 15SM FEW035 BKN065 OVC085 OVC095 11/08 A2982 RMK SC1SC5AC2AC1 AC TR SLP107
较旧的数据

我们和第三方通过cookies跟踪您在我们网站上的上网行为。如果您继续,我们认为您同意我们的cookie政策。 了解更多